Astley, United Kingdom
Current Conditions -  °F | °C
As of 4:20 AM on Monday 26 Jan 2015 (Local Time) from EGCC Reporting Station
Drizzle Drizzle  
Wind Chill: 43°   Ceiling: 500
Heat Index: 48°   Visibility: 3mi
Dew Point: 46°   Wind: 14mph
Humidity: 93%   Direction: 270°W
Pressure: 30.09"   Gusts: NA
Location:  53.5°N, 2.46°W
Report Text: EGCC 260420Z AUTO 27012KT 5000 DZ BKN005 OVC008 09/08 Q1019 REDZ
Loading
Personal Weather Stations






























Interactive Weather Map New forecast layout! Learn more

10-Day Weather Forecast

Advertisements
Track Severe Weather on mobile